Terminal Aerodrome Forecast
Issued by NWS

Home | Current Version | Previous Version | Text Only | Print | Product List | Glossary On
Versions: 1 2 3 4 5 6 7 8 9 10 11 12 13 14 15 16 17 18 19 20 21 22 23 24
607
FTUS42 TJSJ 121129
TAFKPK
TAF
TKPK 121129Z 1212/1312 00000KT P6SM FEW018 BKN050
     FM121430 14010KT P6SM VCSH SCT020 PROB30 1303/1309 -SHRA
      BKN018=

USA.gov is the U.S. government's official web portal to all federal, state and local government web resources and services.